Time;durP1;ratioP1;P1;durP2;ratioP2;P2;SDS_P1;SDS_P2;PMS_P1;PMS_P2;Temp;Humidity;BMP_temperature;BMP_pressure;BME280_temperature;BME280_humidity;BME280_pressure;Samples;Min_cycle;Max_cycle;Signal;HPM_P1;HPM_P2
2023/02/13 00:03:51;;;;;;;17.60;10.80;;;7.00;99.90;;;;;;15125280;23;20050;-37
2023/02/13 00:09:53;;;;;;;18.67;11.40;;;7.00;99.90;;;;;;15126031;23;20026;-37
2023/02/13 00:15:59;;;;;;;14.95;9.95;;;7.00;99.90;;;;;;15126512;23;20051;-37
2023/02/13 00:22:01;;;;;;;16.65;11.23;;;7.00;99.90;;;;;;15099572;23;20089;-36
2023/02/13 00:28:03;;;;;;;17.63;11.05;;;7.00;99.90;;;;;;15124039;23;20049;-36
2023/02/13 00:34:05;;;;;;;17.33;12.18;;;7.00;99.90;;;;;;15127056;23;20389;-37
2023/02/13 00:40:07;;;;;;;23.60;13.00;;;7.00;99.90;;;;;;15128920;23;20085;-36
2023/02/13 00:46:10;;;;;;;19.90;12.98;;;7.00;99.90;;;;;;15066067;23;20075;-36
2023/02/13 00:52:11;;;;;;;17.15;11.60;;;7.00;99.90;;;;;;15129282;23;20018;-37
2023/02/13 00:58:13;;;;;;;17.92;11.95;;;7.00;99.90;;;;;;15133494;23;20387;-37
2023/02/13 01:04:15;;;;;;;18.05;12.50;;;7.00;99.90;;;;;;15130696;23;20026;-37
2023/02/13 01:10:17;;;;;;;20.80;12.35;;;7.00;99.90;;;;;;15131026;23;20108;-36
2023/02/13 01:16:19;;;;;;;18.15;11.77;;;6.90;99.90;;;;;;15128242;23;20033;-36
2023/02/13 01:22:21;;;;;;;17.55;10.93;;;6.90;99.90;;;;;;15130092;23;20465;-36
2023/02/13 01:28:23;;;;;;;18.63;11.32;;;6.90;99.90;;;;;;15126413;23;20026;-36
2023/02/13 01:34:25;;;;;;;20.00;11.95;;;6.90;99.90;;;;;;15131689;23;20037;-37
2023/02/13 01:40:28;;;;;;;18.73;11.57;;;6.90;99.90;;;;;;15131563;23;20022;-36
2023/02/13 01:46:38;;;;;;;19.98;12.18;;;6.90;99.90;;;;;;15101279;23;20395;-36
2023/02/13 01:52:45;;;;;;;21.85;12.13;;;6.80;99.90;;;;;;15129685;23;20026;-36
2023/02/13 01:58:51;;;;;;;15.98;10.52;;;6.90;99.90;;;;;;15132363;23;20026;-36
2023/02/13 02:04:53;;;;;;;17.02;10.10;;;6.80;99.90;;;;;;15127382;23;20464;-37
2023/02/13 02:11:03;;;;;;;14.38;9.32;;;6.80;99.90;;;;;;15130501;23;20329;-36
2023/02/13 02:17:06;;;;;;;14.10;8.68;;;6.80;99.90;;;;;;15129062;23;20347;-36
2023/02/13 02:23:29;;;;;;;16.50;9.10;;;6.80;99.90;;;;;;15103978;23;20023;-36
2023/02/13 02:30:02;;;;;;;16.08;9.52;;;6.80;99.90;;;;;;15129354;23;20474;-37
2023/02/13 02:36:28;;;;;;;13.98;8.50;;;6.80;99.90;;;;;;15123845;23;20772;-36
2023/02/13 02:42:30;;;;;;;14.25;8.93;;;6.80;99.90;;;;;;15128726;23;20104;-36
2023/02/13 02:55:05;;;;;;;15.52;9.13;;;6.70;99.90;;;;;;15123952;23;20078;-37
2023/02/13 03:07:33;;;;;;;14.25;9.10;;;6.70;99.90;;;;;;15125523;23;20022;-37
2023/02/13 03:13:44;;;;;;;14.43;8.60;;;6.70;99.90;;;;;;15128336;23;20026;-36
2023/02/13 03:26:51;;;;;;;15.35;8.52;;;6.70;99.90;;;;;;15080762;23;20089;-37
2023/02/13 03:33:07;;;;;;;13.95;8.55;;;6.60;99.90;;;;;;15127573;23;20073;-36
2023/02/13 03:39:36;;;;;;;16.55;8.65;;;6.60;99.90;;;;;;15127361;23;20109;-36
2023/02/13 03:45:53;;;;;;;15.15;7.97;;;6.60;99.90;;;;;;15129320;23;20022;-37
2023/02/13 03:52:02;;;;;;;12.82;7.63;;;6.60;99.90;;;;;;15124276;23;20018;-37
2023/02/13 04:04:45;;;;;;;17.45;9.15;;;6.50;99.90;;;;;;15127454;23;20105;-37
2023/02/13 04:11:12;;;;;;;15.13;8.40;;;6.60;99.90;;;;;;15124531;23;20580;-37
2023/02/13 04:17:21;;;;;;;16.77;8.60;;;6.60;99.90;;;;;;15129162;23;20026;-36
2023/02/13 04:23:23;;;;;;;17.40;9.13;;;6.50;99.90;;;;;;15126520;23;20354;-37
2023/02/13 04:29:26;;;;;;;17.83;9.20;;;6.50;99.90;;;;;;15099153;23;20026;-36
2023/02/13 04:35:28;;;;;;;17.90;9.57;;;6.50;99.90;;;;;;15125366;23;20026;-36
2023/02/13 04:41:29;;;;;;;19.02;10.75;;;6.40;99.90;;;;;;15127729;23;20595;-37
2023/02/13 04:47:31;;;;;;;21.70;11.18;;;6.40;99.90;;;;;;15123571;23;20022;-36
2023/02/13 04:53:33;;;;;;;20.50;11.15;;;6.40;99.90;;;;;;15124078;23;20034;-36
2023/02/13 04:59:35;;;;;;;23.95;12.38;;;6.40;99.90;;;;;;15098173;23;20030;-36
2023/02/13 05:05:38;;;;;;;25.42;12.45;;;6.40;99.90;;;;;;15124391;23;20122;-36
2023/02/13 05:11:40;;;;;;;25.48;13.35;;;6.40;99.90;;;;;;15124231;23;20101;-36
2023/02/13 05:17:46;;;;;;;27.20;13.55;;;6.30;99.90;;;;;;15126925;23;20336;-36
2023/02/13 05:23:48;;;;;;;30.45;12.95;;;6.40;99.90;;;;;;15126067;23;20035;-36
2023/02/13 05:29:49;;;;;;;27.50;13.40;;;6.30;99.90;;;;;;15131887;23;20031;-37
2023/02/13 05:35:51;;;;;;;26.73;13.57;;;6.30;99.90;;;;;;15129788;23;20053;-36
2023/02/13 05:41:53;;;;;;;25.65;12.68;;;6.30;99.90;;;;;;15129166;23;20037;-36
2023/02/13 05:47:55;;;;;;;22.98;12.35;;;6.20;99.90;;;;;;15129990;23;20054;-36
2023/02/13 05:53:57;;;;;;;24.90;11.63;;;6.20;99.90;;;;;;15132007;23;20027;-36
2023/02/13 05:59:59;;;;;;;20.27;10.52;;;6.20;99.90;;;;;;15131730;23;20463;-36
2023/02/13 06:06:01;;;;;;;26.20;10.43;;;6.20;99.90;;;;;;15127721;23;20030;-36
2023/02/13 06:12:03;;;;;;;20.15;10.60;;;6.20;99.90;;;;;;15129843;23;20146;-36
2023/02/13 06:18:05;;;;;;;19.73;10.30;;;6.20;99.90;;;;;;15129716;23;20035;-36
2023/02/13 06:24:07;;;;;;;21.10;10.25;;;6.20;99.90;;;;;;15127309;23;20057;-36
2023/02/13 06:30:10;;;;;;;22.27;10.50;;;6.10;99.90;;;;;;15103796;23;20424;-36
2023/02/13 06:36:12;;;;;;;30.85;10.85;;;6.10;99.90;;;;;;15125400;23;20067;-36
2023/02/13 06:42:14;;;;;;;19.13;9.82;;;6.10;99.90;;;;;;15121575;23;20422;-37
2023/02/13 06:48:16;;;;;;;18.60;10.15;;;6.10;99.90;;;;;;15126037;23;20026;-36
2023/02/13 06:54:18;;;;;;;17.85;8.50;;;6.10;99.90;;;;;;15119852;23;20101;-37
2023/02/13 07:00:20;;;;;;;17.60;9.25;;;6.10;99.90;;;;;;15122516;23;20026;-36
2023/02/13 07:06:22;;;;;;;17.60;9.27;;;6.10;99.90;;;;;;15100052;23;20033;-35
2023/02/13 07:12:24;;;;;;;19.67;8.80;;;6.10;99.90;;;;;;15128124;23;20321;-37
2023/02/13 07:18:26;;;;;;;17.65;9.05;;;6.10;99.90;;;;;;15100941;23;21129;-36
2023/02/13 07:24:28;;;;;;;18.35;8.90;;;6.10;99.90;;;;;;15118900;23;20034;-36
2023/02/13 07:30:31;;;;;;;21.77;10.13;;;6.20;99.90;;;;;;15100006;23;20461;-36
2023/02/13 07:36:33;;;;;;;16.75;8.30;;;6.10;99.90;;;;;;15125522;23;20023;-36
2023/02/13 07:42:35;;;;;;;19.23;9.10;;;6.20;99.90;;;;;;15121437;23;20027;-36
2023/02/13 07:48:37;;;;;;;19.88;9.18;;;6.20;99.90;;;;;;15118956;23;20456;-36
2023/02/13 07:54:45;;;;;;;18.23;9.27;;;6.30;99.90;;;;;;15124522;23;20472;-36
2023/02/13 08:00:48;;;;;;;17.52;9.35;;;6.30;99.90;;;;;;15123190;23;20054;-37
2023/02/13 08:06:50;;;;;;;18.15;8.30;;;6.30;99.90;;;;;;15100187;23;20359;-36
2023/02/13 08:12:53;;;;;;;20.42;9.07;;;6.30;99.90;;;;;;15125453;23;20367;-36
2023/02/13 08:18:55;;;;;;;16.75;8.98;;;6.40;99.90;;;;;;15091835;23;20120;-36
2023/02/13 08:24:57;;;;;;;18.40;9.10;;;6.50;99.90;;;;;;15125982;23;20108;-37
2023/02/13 08:30:58;;;;;;;17.23;8.77;;;6.50;99.90;;;;;;15126538;23;20026;-37
2023/02/13 08:37:01;;;;;;;20.20;9.38;;;6.50;99.90;;;;;;15122012;23;20029;-37
2023/02/13 08:43:05;;;;;;;17.08;9.15;;;6.50;99.90;;;;;;15099072;23;20433;-36
2023/02/13 08:49:06;;;;;;;22.52;8.80;;;6.70;99.90;;;;;;15123162;23;20097;-36
2023/02/13 08:55:08;;;;;;;19.25;9.50;;;6.70;99.90;;;;;;15125750;23;20174;-36
2023/02/13 09:01:10;;;;;;;18.88;9.38;;;6.80;99.90;;;;;;15129741;23;20157;-36
2023/02/13 09:07:13;;;;;;;18.45;9.27;;;6.70;99.90;;;;;;15132377;23;20027;-36
2023/02/13 09:13:15;;;;;;;18.95;9.43;;;6.80;99.90;;;;;;15129811;23;20491;-36
2023/02/13 09:19:17;;;;;;;18.80;9.05;;;6.80;99.90;;;;;;15130233;23;20030;-36
2023/02/13 09:25:20;;;;;;;17.95;9.07;;;6.80;99.90;;;;;;15056600;23;20067;-36
2023/02/13 09:31:22;;;;;;;19.35;8.75;;;6.90;99.90;;;;;;15059457;23;20019;-36
2023/02/13 09:37:26;;;;;;;18.85;9.10;;;6.90;99.90;;;;;;15060025;23;20564;-37
2023/02/13 09:43:58;;;;;;;15.00;8.20;;;7.00;99.90;;;;;;15056807;23;20153;-36
2023/02/13 09:50:06;;;;;;;17.90;8.95;;;7.10;99.90;;;;;;15053741;23;20023;-37
2023/02/13 09:56:21;;;;;;;14.57;8.35;;;7.20;99.90;;;;;;15058292;23;20026;-37
2023/02/13 10:02:37;;;;;;;16.90;8.48;;;7.30;99.90;;;;;;15055178;23;20034;-37
2023/02/13 10:09:20;;;;;;;15.52;8.73;;;7.40;99.90;;;;;;15057758;23;20019;-37
2023/02/13 10:15:34;;;;;;;16.13;8.85;;;7.40;99.90;;;;;;15055814;23;20081;-37
2023/02/13 10:21:41;;;;;;;15.20;7.50;;;7.50;99.90;;;;;;15063461;23;20030;-36
2023/02/13 10:27:48;;;;;;;11.38;6.35;;;7.50;99.90;;;;;;15105050;23;20022;-36
2023/02/13 10:33:54;;;;;;;13.48;7.32;;;7.50;99.90;;;;;;15127549;23;20053;-37
2023/02/13 10:39:57;;;;;;;11.73;6.45;;;7.60;99.90;;;;;;15128554;23;20022;-37
2023/02/13 10:46:10;;;;;;;8.85;5.88;;;7.80;99.90;;;;;;15129057;23;20030;-37
2023/02/13 10:52:34;;;;;;;10.65;6.32;;;7.90;99.90;;;;;;15130027;23;20146;-37
2023/02/13 10:58:56;;;;;;;13.40;7.10;;;7.90;99.90;;;;;;15131099;23;20045;-37
2023/02/13 11:05:21;;;;;;;9.68;6.07;;;8.00;99.90;;;;;;15102315;23;20038;-37
2023/02/13 11:11:37;;;;;;;11.37;6.37;;;8.20;99.90;;;;;;15129184;23;20146;-37
2023/02/13 11:17:41;;;;;;;9.05;6.10;;;8.20;99.90;;;;;;15125220;23;20467;-37
2023/02/13 11:23:49;;;;;;;9.57;5.60;;;8.40;99.90;;;;;;15126504;23;20030;-37
2023/02/13 11:29:57;;;;;;;9.73;6.07;;;8.40;99.90;;;;;;15130076;23;20547;-37
2023/02/13 11:36:08;;;;;;;10.02;6.28;;;8.60;99.90;;;;;;15121722;23;20026;-37
2023/02/13 11:42:18;;;;;;;11.35;6.30;;;8.40;99.90;;;;;;15127796;23;20083;-37
2023/02/13 11:48:22;;;;;;;9.10;5.72;;;8.50;99.90;;;;;;15125376;23;20897;-37
2023/02/13 11:54:26;;;;;;;10.10;6.00;;;8.50;99.90;;;;;;15128417;23;20022;-36
2023/02/13 12:00:32;;;;;;;8.52;5.45;;;8.60;99.90;;;;;;15125478;23;20027;-37
2023/02/13 12:06:44;;;;;;;7.75;4.75;;;8.60;99.90;;;;;;15123574;23;20037;-37
2023/02/13 12:12:54;;;;;;;8.18;5.30;;;8.50;99.90;;;;;;15128576;23;20026;-37
2023/02/13 12:19:02;;;;;;;9.50;5.55;;;8.60;99.90;;;;;;15126907;23;20452;-36
2023/02/13 12:25:13;;;;;;;9.23;6.07;;;8.60;99.90;;;;;;15101707;23;20568;-37
2023/02/13 12:31:48;;;;;;;8.55;5.63;;;8.70;99.90;;;;;;15127190;23;20030;-37
2023/02/13 12:37:57;;;;;;;10.63;5.63;;;8.90;99.90;;;;;;15111225;23;20073;-37
2023/02/13 12:44:24;;;;;;;9.90;5.40;;;9.00;99.90;;;;;;15132203;23;20671;-37
2023/02/13 12:50:50;;;;;;;9.43;5.55;;;9.10;99.90;;;;;;15126783;23;20067;-37
2023/02/13 12:57:01;;;;;;;9.88;5.32;;;9.20;99.90;;;;;;15132361;23;20097;-37
2023/02/13 13:03:24;;;;;;;11.15;5.43;;;9.20;99.90;;;;;;15130577;23;20031;-37
2023/02/13 13:09:53;;;;;;;8.07;4.63;;;9.00;99.90;;;;;;15082707;23;20018;-37
2023/02/13 13:16:17;;;;;;;10.60;5.00;;;8.90;99.90;;;;;;15099728;23;20574;-37
2023/02/13 13:22:33;;;;;;;8.15;5.28;;;8.70;99.90;;;;;;15125752;23;20022;-36
2023/02/13 13:28:42;;;;;;;8.15;5.07;;;9.00;99.90;;;;;;15132363;23;20090;-37
2023/02/13 13:34:45;;;;;;;7.88;5.00;;;8.80;99.90;;;;;;15125669;23;20042;-37
2023/02/13 13:41:04;;;;;;;6.57;4.30;;;8.90;99.90;;;;;;15128386;23;20325;-37
2023/02/13 13:47:43;;;;;;;6.53;4.45;;;9.00;99.90;;;;;;15129325;23;20030;-37
2023/02/13 13:54:06;;;;;;;8.80;4.47;;;9.30;99.90;;;;;;15125885;23;20037;-38
2023/02/13 14:00:08;;;;;;;6.93;4.53;;;8.80;99.90;;;;;;15129636;23;20122;-37
2023/02/13 14:06:43;;;;;;;7.63;4.45;;;8.40;99.90;;;;;;15091991;23;20022;-36
2023/02/13 14:12:55;;;;;;;6.50;4.05;;;8.40;99.90;;;;;;15067236;23;20169;-37
2023/02/13 14:18:58;;;;;;;6.07;4.13;;;8.30;99.90;;;;;;15125874;23;20030;-37
2023/02/13 14:25:19;;;;;;;6.63;3.88;;;8.00;99.90;;;;;;15126681;23;20026;-37
2023/02/13 14:31:34;;;;;;;7.65;4.70;;;7.80;99.90;;;;;;15100692;23;20033;-37
2023/02/13 14:37:46;;;;;;;6.05;3.78;;;8.00;99.90;;;;;;15128287;23;20041;-36
2023/02/13 14:43:52;;;;;;;6.38;3.60;;;8.00;99.90;;;;;;15125654;23;20165;-37
2023/02/13 14:49:55;;;;;;;5.57;3.40;;;8.10;99.90;;;;;;15124375;23;20101;-37
2023/02/13 14:56:11;;;;;;;5.80;3.72;;;8.10;99.90;;;;;;15124860;23;20460;-37
2023/02/13 15:02:23;;;;;;;5.15;3.47;;;8.10;99.90;;;;;;15127167;23;20068;-37
2023/02/13 15:08:31;;;;;;;6.50;3.22;;;8.10;99.90;;;;;;15130096;23;20033;-37
2023/02/13 15:14:35;;;;;;;5.03;3.13;;;8.00;99.90;;;;;;15125040;23;20026;-37
2023/02/13 15:20:41;;;;;;;5.03;2.90;;;8.00;99.90;;;;;;15122588;23;20026;-37
2023/02/13 15:26:50;;;;;;;6.00;3.08;;;8.00;99.90;;;;;;15128542;23;20393;-36
2023/02/13 15:33:19;;;;;;;6.18;3.55;;;7.90;99.90;;;;;;12663134;27;20559;-36
2023/02/13 15:39:30;;;;;;;6.03;3.55;;;7.90;99.90;;;;;;12609723;28;20411;-36
2023/02/13 15:45:32;;;;;;;7.15;3.60;;;7.80;99.90;;;;;;12528932;28;20044;-35
2023/02/13 15:51:34;;;;;;;4.90;3.10;;;7.70;99.90;;;;;;12535743;28;20085;-36
2023/02/13 15:57:37;;;;;;;5.40;3.42;;;7.60;99.90;;;;;;12522648;28;20087;-36
2023/02/13 16:03:41;;;;;;;5.43;3.50;;;7.50;99.90;;;;;;12500489;28;20492;-36
2023/02/13 16:09:43;;;;;;;7.22;4.10;;;7.40;99.90;;;;;;12467511;28;20046;-36
2023/02/13 16:15:45;;;;;;;6.63;4.10;;;7.20;99.90;;;;;;12470670;28;20052;-36
2023/02/13 16:21:48;;;;;;;7.18;4.00;;;7.10;99.90;;;;;;12466718;28;20054;-36
2023/02/13 16:27:54;;;;;;;6.95;4.22;;;7.00;99.90;;;;;;12471949;28;20137;-36
2023/02/13 16:33:56;;;;;;;6.55;4.40;;;6.90;99.90;;;;;;12471100;28;20099;-36
2023/02/13 16:40:25;;;;;;;8.43;4.35;;;6.70;99.90;;;;;;12441344;28;20390;-35
2023/02/13 16:59:16;;;;;;;6.90;4.40;;;6.10;99.90;;;;;;12413573;28;20069;-83
2023/02/13 17:05:24;;;;;;;7.20;4.55;;;6.00;99.90;;;;;;12390730;28;20137;-83
2023/02/13 17:11:27;;;;;;;8.10;5.55;;;5.70;99.90;;;;;;12413488;28;20060;-83
2023/02/13 17:17:30;;;;;;;10.25;6.30;;;5.70;99.90;;;;;;12419679;28;20046;-83
2023/02/13 17:23:32;;;;;;;9.87;5.27;;;5.70;99.90;;;;;;12419650;28;20042;-83
2023/02/13 17:29:34;;;;;;;8.20;5.28;;;5.70;99.90;;;;;;12427602;28;20050;-83
2023/02/13 17:35:36;;;;;;;10.15;6.20;;;5.60;99.90;;;;;;12421709;28;20038;-83
2023/02/13 17:41:41;;;;;;;9.52;6.05;;;5.50;99.90;;;;;;12431200;28;20096;-83
2023/02/13 17:47:43;;;;;;;8.32;5.60;;;5.40;99.90;;;;;;12419716;28;20134;-83
2023/02/13 17:53:45;;;;;;;9.50;5.97;;;5.20;99.90;;;;;;12420889;28;20444;-83
2023/02/13 17:59:47;;;;;;;7.65;5.32;;;5.10;99.90;;;;;;12423476;28;20535;-83
2023/02/13 18:05:49;;;;;;;8.40;5.10;;;5.00;99.90;;;;;;12426761;28;20107;-83
2023/02/13 18:11:51;;;;;;;16.83;10.73;;;4.80;99.90;;;;;;12419601;28;20049;-83
2023/02/13 18:18:06;;;;;;;11.00;6.95;;;4.80;99.90;;;;;;12419389;28;20386;-83
2023/02/13 18:24:08;;;;;;;10.30;6.88;;;4.80;99.90;;;;;;12389922;28;20286;-83
2023/02/13 18:30:12;;;;;;;11.18;7.28;;;4.60;99.90;;;;;;12392006;28;20050;-83
2023/02/13 18:36:14;;;;;;;11.52;8.85;;;4.70;99.90;;;;;;12399648;28;20053;-83
2023/02/13 18:42:17;;;;;;;13.85;7.70;;;4.60;99.90;;;;;;12384714;28;20165;-83
2023/02/13 18:48:19;;;;;;;10.45;7.32;;;4.60;99.90;;;;;;12408820;28;20051;-83
2023/02/13 18:54:21;;;;;;;11.75;7.60;;;4.50;99.90;;;;;;12386276;28;20061;-83
2023/02/13 19:00:24;;;;;;;11.55;7.53;;;4.40;99.90;;;;;;12392268;28;20058;-83
2023/02/13 19:06:26;;;;;;;10.27;7.40;;;4.40;99.90;;;;;;12399081;28;20394;-83
2023/02/13 19:12:29;;;;;;;11.38;7.93;;;4.40;99.90;;;;;;12392558;28;20050;-83
2023/02/13 19:18:31;;;;;;;10.07;7.22;;;4.00;99.90;;;;;;12392801;28;20610;-83
2023/02/13 19:24:32;;;;;;;11.75;7.40;;;3.70;99.90;;;;;;12386670;28;20092;-83
2023/02/13 19:30:35;;;;;;;12.90;8.30;;;3.60;99.90;;;;;;12391140;28;20109;-83
2023/02/13 19:36:37;;;;;;;11.38;7.68;;;3.70;99.90;;;;;;12386035;28;20054;-83
2023/02/13 19:42:39;;;;;;;12.93;8.32;;;3.80;99.90;;;;;;12389129;28;20054;-83
2023/02/13 19:48:41;;;;;;;14.27;8.95;;;3.90;99.90;;;;;;12396445;28;20051;-83
2023/02/13 19:54:43;;;;;;;15.20;10.20;;;3.90;99.90;;;;;;12388591;28;20046;-83
2023/02/13 20:00:45;;;;;;;15.50;9.77;;;4.10;99.90;;;;;;12388312;28;20417;-83
2023/02/13 20:06:48;;;;;;;15.20;9.98;;;4.00;99.90;;;;;;12385867;28;20521;-83
2023/02/13 20:12:53;;;;;;;14.57;8.63;;;3.90;99.90;;;;;;12391792;28;20054;-83
2023/02/13 20:18:56;;;;;;;16.67;9.63;;;3.90;99.90;;;;;;12398997;28;20057;-83
2023/02/13 20:24:58;;;;;;;15.63;10.52;;;3.80;99.90;;;;;;12400936;28;20475;-83
2023/02/13 20:31:02;;;;;;;13.55;8.98;;;3.90;99.90;;;;;;12392967;28;20050;-83
2023/02/13 20:37:04;;;;;;;15.02;9.50;;;3.80;99.90;;;;;;12390999;28;20046;-83
2023/02/13 20:43:06;;;;;;;14.60;9.55;;;3.70;99.90;;;;;;12393815;28;20108;-83
2023/02/13 20:49:10;;;;;;;16.05;10.57;;;3.60;99.90;;;;;;12400316;28;20812;-83
2023/02/13 20:55:12;;;;;;;14.93;9.45;;;3.50;99.90;;;;;;12397079;28;20119;-83
2023/02/13 21:01:21;;;;;;;13.55;9.00;;;3.60;99.90;;;;;;12414509;28;20068;-83
2023/02/13 21:07:24;;;;;;;14.63;8.93;;;3.40;99.90;;;;;;12403801;28;20054;-83
2023/02/13 21:13:25;;;;;;;12.85;8.73;;;3.40;99.90;;;;;;12399464;28;20065;-83
2023/02/13 21:19:30;;;;;;;14.55;9.02;;;3.40;99.90;;;;;;12396983;28;20139;-83
2023/02/13 21:25:32;;;;;;;15.85;9.85;;;3.40;99.90;;;;;;12398242;28;20042;-83
2023/02/13 21:31:42;;;;;;;15.32;9.30;;;3.30;99.90;;;;;;12386706;28;20445;-83
2023/02/13 21:37:44;;;;;;;14.75;9.23;;;3.20;99.90;;;;;;12390629;28;20042;-83
2023/02/13 21:43:48;;;;;;;16.45;9.57;;;3.20;99.90;;;;;;12377281;28;20092;-83
2023/02/13 21:49:50;;;;;;;15.38;8.65;;;3.10;99.90;;;;;;12387948;28;20061;-83
2023/02/13 21:55:51;;;;;;;15.43;9.75;;;3.10;99.90;;;;;;12377693;28;20054;-83
2023/02/13 22:01:53;;;;;;;15.40;10.00;;;3.00;99.90;;;;;;12378962;28;20407;-83
2023/02/13 22:08:10;;;;;;;16.65;9.73;;;3.00;99.90;;;;;;12394756;28;20055;-83
2023/02/13 22:14:15;;;;;;;15.48;9.50;;;3.00;99.90;;;;;;12393489;28;20057;-83
2023/02/13 22:20:18;;;;;;;16.75;10.43;;;3.00;99.90;;;;;;12375440;28;20050;-83
2023/02/13 22:26:23;;;;;;;18.17;9.98;;;2.90;99.90;;;;;;12376268;28;20062;-83
2023/02/13 22:32:25;;;;;;;16.30;10.05;;;2.90;99.90;;;;;;12389975;28;20054;-83
2023/02/13 22:38:27;;;;;;;20.08;10.88;;;2.90;99.90;;;;;;12372077;28;20109;-83
2023/02/13 22:44:29;;;;;;;18.08;10.60;;;2.80;99.90;;;;;;12377519;28;20081;-83
2023/02/13 22:50:31;;;;;;;18.50;9.82;;;2.80;99.90;;;;;;12367257;28;20054;-83
2023/02/13 22:56:33;;;;;;;20.40;11.38;;;2.70;99.90;;;;;;12368939;28;20107;-83
2023/02/13 23:02:35;;;;;;;20.35;11.07;;;2.60;99.90;;;;;;12369753;28;20482;-82
2023/02/13 23:08:38;;;;;;;19.70;11.07;;;2.60;99.90;;;;;;12376734;28;20490;-83
2023/02/13 23:14:40;;;;;;;20.67;11.15;;;2.60;99.90;;;;;;12375857;28;20038;-83
2023/02/13 23:20:42;;;;;;;19.17;11.35;;;2.50;99.90;;;;;;12367896;28;20141;-83
2023/02/13 23:26:44;;;;;;;22.45;12.13;;;2.50;99.90;;;;;;12371299;28;20046;-83
2023/02/13 23:32:46;;;;;;;22.98;12.90;;;2.50;99.90;;;;;;12373237;28;20138;-83
2023/02/13 23:38:48;;;;;;;24.10;13.43;;;2.50;99.90;;;;;;12386174;28;20061;-83
2023/02/13 23:44:49;;;;;;;16.52;9.93;;;2.50;99.90;;;;;;12369928;28;20046;-83
2023/02/13 23:50:52;;;;;;;22.42;11.55;;;2.30;99.90;;;;;;12366997;28;20340;-82
2023/02/13 23:56:54;;;;;;;20.00;11.95;;;2.40;99.90;;;;;;12379322;28;20069;-82
